sensor_id;sensor_type;location;lat;lon;timestamp;pressure;altitude;pressure_sealevel;temperature;humidity
15932;BME280;8065;49.520;11.284;2022-09-28T00:01:07;95944.13;;;9.49;100.00
15932;BME280;8065;49.520;11.284;2022-09-28T00:03:34;95936.88;;;9.46;100.00
15932;BME280;8065;49.520;11.284;2022-09-28T00:06:02;95935.00;;;9.47;100.00
15932;BME280;8065;49.520;11.284;2022-09-28T00:08:28;95934.66;;;9.48;100.00
15932;BME280;8065;49.520;11.284;2022-09-28T00:10:56;95926.38;;;9.53;100.00
15932;BME280;8065;49.520;11.284;2022-09-28T00:13:23;95931.56;;;9.46;100.00
15932;BME280;8065;49.520;11.284;2022-09-28T00:15:58;95921.09;;;9.53;100.00
15932;BME280;8065;49.520;11.284;2022-09-28T00:18:25;95916.63;;;9.58;99.69
15932;BME280;8065;49.520;11.284;2022-09-28T00:20:59;95902.31;;;9.62;99.39
15932;BME280;8065;49.520;11.284;2022-09-28T00:23:25;95893.59;;;9.62;100.00
15932;BME280;8065;49.520;11.284;2022-09-28T00:25:51;95892.13;;;9.64;99.54
15932;BME280;8065;49.520;11.284;2022-09-28T00:28:19;95888.00;;;9.67;99.91
15932;BME280;8065;49.520;11.284;2022-09-28T00:30:46;95882.00;;;9.70;99.21
15932;BME280;8065;49.520;11.284;2022-09-28T00:33:12;95878.94;;;9.68;99.40
15932;BME280;8065;49.520;11.284;2022-09-28T00:35:39;95873.56;;;9.64;100.00
15932;BME280;8065;49.520;11.284;2022-09-28T00:38:05;95864.50;;;9.65;99.19
15932;BME280;8065;49.520;11.284;2022-09-28T00:40:33;95861.41;;;9.63;99.91
15932;BME280;8065;49.520;11.284;2022-09-28T00:43:15;95864.06;;;9.63;99.34
15932;BME280;8065;49.520;11.284;2022-09-28T00:45:44;95867.13;;;9.65;99.89
15932;BME280;8065;49.520;11.284;2022-09-28T00:48:14;95856.06;;;9.60;99.92
15932;BME280;8065;49.520;11.284;2022-09-28T00:50:41;95848.50;;;9.62;99.12
15932;BME280;8065;49.520;11.284;2022-09-28T00:53:10;95835.44;;;9.49;99.85
15932;BME280;8065;49.520;11.284;2022-09-28T00:55:39;95836.84;;;9.43;100.00
15932;BME280;8065;49.520;11.284;2022-09-28T00:58:10;95835.31;;;9.42;99.98
15932;BME280;8065;49.520;11.284;2022-09-28T01:00:38;95837.19;;;9.42;100.00
15932;BME280;8065;49.520;11.284;2022-09-28T01:03:07;95834.59;;;9.45;100.00
15932;BME280;8065;49.520;11.284;2022-09-28T01:05:35;95832.38;;;9.47;100.00
15932;BME280;8065;49.520;11.284;2022-09-28T01:08:02;95831.19;;;9.45;100.00
15932;BME280;8065;49.520;11.284;2022-09-28T01:10:30;95821.69;;;9.44;99.54
15932;BME280;8065;49.520;11.284;2022-09-28T01:12:57;95818.69;;;9.45;100.00
15932;BME280;8065;49.520;11.284;2022-09-28T01:15:26;95825.47;;;9.43;99.33
15932;BME280;8065;49.520;11.284;2022-09-28T01:18:00;95804.75;;;9.48;99.46
15932;BME280;8065;49.520;11.284;2022-09-28T01:20:46;95807.38;;;9.48;100.00
15932;BME280;8065;49.520;11.284;2022-09-28T01:23:36;95799.84;;;9.50;99.90
15932;BME280;8065;49.520;11.284;2022-09-28T01:26:35;95794.59;;;9.54;99.47
15932;BME280;8065;49.520;11.284;2022-09-28T01:29:10;95787.00;;;9.52;99.66
15932;BME280;8065;49.520;11.284;2022-09-28T01:31:40;95786.19;;;9.48;99.84
15932;BME280;8065;49.520;11.284;2022-09-28T01:34:12;95777.97;;;9.57;99.89
15932;BME280;8065;49.520;11.284;2022-09-28T01:36:42;95776.44;;;9.56;99.58
15932;BME280;8065;49.520;11.284;2022-09-28T01:39:14;95767.31;;;9.53;98.87
15932;BME280;8065;49.520;11.284;2022-09-28T01:41:44;95757.44;;;9.50;98.84
15932;BME280;8065;49.520;11.284;2022-09-28T01:44:16;95752.00;;;9.43;99.60
15932;BME280;8065;49.520;11.284;2022-09-28T01:46:45;95749.78;;;9.45;98.92
15932;BME280;8065;49.520;11.284;2022-09-28T01:49:17;95740.41;;;9.51;99.85
15932;BME280;8065;49.520;11.284;2022-09-28T01:51:50;95747.63;;;9.54;99.76
15932;BME280;8065;49.520;11.284;2022-09-28T01:54:21;95730.66;;;9.59;99.48
15932;BME280;8065;49.520;11.284;2022-09-28T01:56:53;95730.31;;;9.61;100.00
15932;BME280;8065;49.520;11.284;2022-09-28T01:59:23;95720.47;;;9.61;99.25
15932;BME280;8065;49.520;11.284;2022-09-28T02:01:55;95718.16;;;9.60;100.00
15932;BME280;8065;49.520;11.284;2022-09-28T02:04:27;95718.56;;;9.62;99.72
15932;BME280;8065;49.520;11.284;2022-09-28T02:06:59;95710.56;;;9.58;100.00
15932;BME280;8065;49.520;11.284;2022-09-28T02:09:31;95707.56;;;9.60;99.74
15932;BME280;8065;49.520;11.284;2022-09-28T02:12:05;95698.06;;;9.59;99.43
15932;BME280;8065;49.520;11.284;2022-09-28T02:14:35;95698.47;;;9.61;99.92
15932;BME280;8065;49.520;11.284;2022-09-28T02:17:04;95693.88;;;9.58;99.83
15932;BME280;8065;49.520;11.284;2022-09-28T02:19:31;95691.75;;;9.67;99.35
15932;BME280;8065;49.520;11.284;2022-09-28T02:22:01;95682.56;;;9.61;99.62
15932;BME280;8065;49.520;11.284;2022-09-28T02:24:34;95684.88;;;9.62;99.16
15932;BME280;8065;49.520;11.284;2022-09-28T02:27:11;95695.47;;;9.62;100.00
15932;BME280;8065;49.520;11.284;2022-09-28T02:29:39;95689.41;;;9.62;100.00
15932;BME280;8065;49.520;11.284;2022-09-28T02:32:05;95686.63;;;9.51;100.00
15932;BME280;8065;49.520;11.284;2022-09-28T02:34:32;95675.03;;;9.63;100.00
15932;BME280;8065;49.520;11.284;2022-09-28T02:37:00;95669.44;;;9.68;99.34
15932;BME280;8065;49.520;11.284;2022-09-28T02:39:27;95672.06;;;9.68;100.00
15932;BME280;8065;49.520;11.284;2022-09-28T02:42:00;95670.97;;;9.69;99.91
15932;BME280;8065;49.520;11.284;2022-09-28T02:44:42;95668.31;;;9.69;99.99
15932;BME280;8065;49.520;11.284;2022-09-28T02:47:23;95651.53;;;9.61;100.00
15932;BME280;8065;49.520;11.284;2022-09-28T02:49:57;95645.44;;;9.61;100.00
15932;BME280;8065;49.520;11.284;2022-09-28T02:52:41;95643.50;;;9.58;100.00
15932;BME280;8065;49.520;11.284;2022-09-28T02:55:30;95640.00;;;9.50;100.00
15932;BME280;8065;49.520;11.284;2022-09-28T02:58:12;95639.66;;;9.51;100.00
15932;BME280;8065;49.520;11.284;2022-09-28T03:00:50;95630.06;;;9.43;100.00
15932;BME280;8065;49.520;11.284;2022-09-28T03:03:23;95629.53;;;9.61;100.00
15932;BME280;8065;49.520;11.284;2022-09-28T03:05:58;95631.88;;;9.66;100.00
15932;BME280;8065;49.520;11.284;2022-09-28T03:08:30;95641.63;;;9.58;100.00
15932;BME280;8065;49.520;11.284;2022-09-28T03:11:01;95640.16;;;9.61;100.00
15932;BME280;8065;49.520;11.284;2022-09-28T03:13:29;95643.63;;;9.65;100.00
15932;BME280;8065;49.520;11.284;2022-09-28T03:16:12;95628.94;;;9.71;100.00
15932;BME280;8065;49.520;11.284;2022-09-28T03:18:39;95620.56;;;9.69;100.00
15932;BME280;8065;49.520;11.284;2022-09-28T03:21:06;95613.63;;;9.61;100.00
15932;BME280;8065;49.520;11.284;2022-09-28T03:23:33;95608.50;;;9.45;100.00
15932;BME280;8065;49.520;11.284;2022-09-28T03:25:59;95608.84;;;9.43;100.00
15932;BME280;8065;49.520;11.284;2022-09-28T03:28:26;95610.28;;;9.37;100.00
15932;BME280;8065;49.520;11.284;2022-09-28T03:30:53;95608.44;;;9.41;100.00
15932;BME280;8065;49.520;11.284;2022-09-28T03:33:21;95606.00;;;9.29;100.00
15932;BME280;8065;49.520;11.284;2022-09-28T03:35:49;95593.56;;;9.33;100.00
15932;BME280;8065;49.520;11.284;2022-09-28T03:38:15;95605.97;;;9.52;100.00
15932;BME280;8065;49.520;11.284;2022-09-28T03:40:42;95594.66;;;9.59;100.00
15932;BME280;8065;49.520;11.284;2022-09-28T03:43:09;95595.88;;;9.65;100.00
15932;BME280;8065;49.520;11.284;2022-09-28T03:45:35;95575.78;;;9.64;100.00
15932;BME280;8065;49.520;11.284;2022-09-28T03:48:03;95580.34;;;9.63;100.00
15932;BME280;8065;49.520;11.284;2022-09-28T03:50:31;95570.91;;;9.66;100.00
15932;BME280;8065;49.520;11.284;2022-09-28T03:53:01;95566.81;;;9.72;100.00
15932;BME280;8065;49.520;11.284;2022-09-28T03:55:28;95562.78;;;9.81;100.00
15932;BME280;8065;49.520;11.284;2022-09-28T03:57:54;95557.34;;;9.71;100.00
15932;BME280;8065;49.520;11.284;2022-09-28T04:00:21;95545.47;;;9.61;100.00
15932;BME280;8065;49.520;11.284;2022-09-28T04:02:48;95546.69;;;9.67;100.00
15932;BME280;8065;49.520;11.284;2022-09-28T04:05:14;95541.47;;;9.44;100.00
15932;BME280;8065;49.520;11.284;2022-09-28T04:07:42;95543.09;;;9.52;100.00
15932;BME280;8065;49.520;11.284;2022-09-28T04:10:08;95526.81;;;9.54;100.00
15932;BME280;8065;49.520;11.284;2022-09-28T04:12:35;95524.16;;;9.54;100.00
15932;BME280;8065;49.520;11.284;2022-09-28T04:15:01;95517.78;;;9.59;100.00
15932;BME280;8065;49.520;11.284;2022-09-28T04:17:28;95520.53;;;9.66;100.00
15932;BME280;8065;49.520;11.284;2022-09-28T04:19:56;95522.03;;;9.67;100.00
15932;BME280;8065;49.520;11.284;2022-09-28T04:22:23;95515.13;;;9.59;100.00
15932;BME280;8065;49.520;11.284;2022-09-28T04:24:51;95511.69;;;9.58;100.00
15932;BME280;8065;49.520;11.284;2022-09-28T04:27:17;95514.50;;;9.69;100.00
15932;BME280;8065;49.520;11.284;2022-09-28T04:30:16;95509.28;;;9.76;100.00
15932;BME280;8065;49.520;11.284;2022-09-28T04:32:44;95522.22;;;9.81;100.00
15932;BME280;8065;49.520;11.284;2022-09-28T04:35:11;95500.13;;;9.70;100.00
15932;BME280;8065;49.520;11.284;2022-09-28T04:37:38;95497.69;;;9.58;100.00
15932;BME280;8065;49.520;11.284;2022-09-28T04:40:07;95484.03;;;9.56;100.00
15932;BME280;8065;49.520;11.284;2022-09-28T04:42:35;95486.81;;;9.36;100.00
15932;BME280;8065;49.520;11.284;2022-09-28T04:45:02;95483.81;;;9.38;100.00
15932;BME280;8065;49.520;11.284;2022-09-28T04:47:29;95482.44;;;9.47;100.00
15932;BME280;8065;49.520;11.284;2022-09-28T04:49:55;95482.13;;;9.56;100.00
15932;BME280;8065;49.520;11.284;2022-09-28T04:52:22;95480.34;;;9.64;100.00
15932;BME280;8065;49.520;11.284;2022-09-28T04:54:48;95481.16;;;9.68;100.00
15932;BME280;8065;49.520;11.284;2022-09-28T04:57:16;95486.13;;;9.73;100.00
15932;BME280;8065;49.520;11.284;2022-09-28T04:59:43;95473.69;;;9.77;100.00
15932;BME280;8065;49.520;11.284;2022-09-28T05:02:09;95473.63;;;9.73;100.00
15932;BME280;8065;49.520;11.284;2022-09-28T05:04:39;95486.13;;;9.73;100.00
15932;BME280;8065;49.520;11.284;2022-09-28T05:07:05;95491.13;;;9.78;100.00
15932;BME280;8065;49.520;11.284;2022-09-28T05:09:32;95483.16;;;9.78;100.00
15932;BME280;8065;49.520;11.284;2022-09-28T05:11:58;95474.47;;;9.81;100.00
15932;BME280;8065;49.520;11.284;2022-09-28T05:14:26;95472.56;;;9.78;100.00
15932;BME280;8065;49.520;11.284;2022-09-28T05:16:52;95474.66;;;9.65;100.00
15932;BME280;8065;49.520;11.284;2022-09-28T05:19:19;95478.72;;;9.56;100.00
15932;BME280;8065;49.520;11.284;2022-09-28T05:21:45;95466.69;;;9.62;100.00
15932;BME280;8065;49.520;11.284;2022-09-28T05:24:13;95466.69;;;9.62;100.00
15932;BME280;8065;49.520;11.284;2022-09-28T05:26:40;95463.38;;;9.72;100.00
15932;BME280;8065;49.520;11.284;2022-09-28T05:29:06;95456.16;;;9.69;100.00
15932;BME280;8065;49.520;11.284;2022-09-28T05:31:34;95454.78;;;9.82;100.00
15932;BME280;8065;49.520;11.284;2022-09-28T05:34:00;95457.75;;;9.77;100.00
15932;BME280;8065;49.520;11.284;2022-09-28T05:36:27;95451.00;;;9.83;100.00
15932;BME280;8065;49.520;11.284;2022-09-28T05:38:54;95454.84;;;9.85;100.00
15932;BME280;8065;49.520;11.284;2022-09-28T05:41:20;95449.56;;;9.89;100.00
15932;BME280;8065;49.520;11.284;2022-09-28T05:43:46;95449.97;;;9.91;100.00
15932;BME280;8065;49.520;11.284;2022-09-28T05:46:15;95435.09;;;9.83;100.00
15932;BME280;8065;49.520;11.284;2022-09-28T05:48:43;95441.16;;;9.83;100.00
15932;BME280;8065;49.520;11.284;2022-09-28T05:51:10;95444.19;;;9.82;100.00
15932;BME280;8065;49.520;11.284;2022-09-28T05:53:36;95448.75;;;9.85;100.00
15932;BME280;8065;49.520;11.284;2022-09-28T05:56:03;95456.41;;;9.90;100.00
15932;BME280;8065;49.520;11.284;2022-09-28T05:58:29;95444.75;;;9.98;100.00
15932;BME280;8065;49.520;11.284;2022-09-28T06:00:57;95452.38;;;10.03;100.00
15932;BME280;8065;49.520;11.284;2022-09-28T06:03:24;95449.00;;;10.06;100.00
15932;BME280;8065;49.520;11.284;2022-09-28T06:05:52;95449.00;;;10.06;100.00
15932;BME280;8065;49.520;11.284;2022-09-28T06:08:18;95453.56;;;10.09;100.00
15932;BME280;8065;49.520;11.284;2022-09-28T06:10:45;95447.13;;;10.10;100.00
15932;BME280;8065;49.520;11.284;2022-09-28T06:13:11;95442.63;;;10.14;100.00
15932;BME280;8065;49.520;11.284;2022-09-28T06:15:41;95444.25;;;10.23;100.00
15932;BME280;8065;49.520;11.284;2022-09-28T06:18:10;95434.75;;;10.22;100.00
15932;BME280;8065;49.520;11.284;2022-09-28T06:20:38;95440.09;;;10.25;100.00
15932;BME280;8065;49.520;11.284;2022-09-28T06:23:07;95445.13;;;10.34;100.00
15932;BME280;8065;49.520;11.284;2022-09-28T06:25:34;95450.09;;;10.39;100.00
15932;BME280;8065;49.520;11.284;2022-09-28T06:28:02;95451.63;;;10.40;100.00
15932;BME280;8065;49.520;11.284;2022-09-28T06:30:31;95456.56;;;10.45;100.00
15932;BME280;8065;49.520;11.284;2022-09-28T06:33:00;95451.69;;;10.50;100.00
15932;BME280;8065;49.520;11.284;2022-09-28T06:35:28;95454.75;;;10.56;100.00
15932;BME280;8065;49.520;11.284;2022-09-28T06:37:55;95460.06;;;10.56;100.00
15932;BME280;8065;49.520;11.284;2022-09-28T06:40:23;95466.56;;;10.62;100.00
15932;BME280;8065;49.520;11.284;2022-09-28T06:42:57;95457.88;;;10.65;100.00
15932;BME280;8065;49.520;11.284;2022-09-28T06:45:24;95466.25;;;10.71;100.00
15932;BME280;8065;49.520;11.284;2022-09-28T06:47:52;95463.97;;;10.69;100.00
15932;BME280;8065;49.520;11.284;2022-09-28T06:50:18;95480.69;;;10.70;100.00
15932;BME280;8065;49.520;11.284;2022-09-28T06:52:48;95475.41;;;10.77;100.00
15932;BME280;8065;49.520;11.284;2022-09-28T06:55:15;95474.28;;;10.78;100.00
15932;BME280;8065;49.520;11.284;2022-09-28T06:57:43;95475.44;;;10.80;100.00
15932;BME280;8065;49.520;11.284;2022-09-28T07:00:10;95478.50;;;10.82;100.00
15932;BME280;8065;49.520;11.284;2022-09-28T07:02:37;95478.56;;;10.90;100.00
15932;BME280;8065;49.520;11.284;2022-09-28T07:05:04;95486.47;;;10.82;100.00
15932;BME280;8065;49.520;11.284;2022-09-28T07:07:32;95487.25;;;10.87;100.00
15932;BME280;8065;49.520;11.284;2022-09-28T07:09:58;95486.16;;;10.91;100.00
15932;BME280;8065;49.520;11.284;2022-09-28T07:12:25;95492.56;;;10.87;100.00
15932;BME280;8065;49.520;11.284;2022-09-28T07:14:53;95495.25;;;10.90;100.00
15932;BME280;8065;49.520;11.284;2022-09-28T07:17:21;95496.03;;;10.91;100.00
15932;BME280;8065;49.520;11.284;2022-09-28T07:19:48;95503.63;;;10.92;100.00
15932;BME280;8065;49.520;11.284;2022-09-28T07:22:17;95507.38;;;10.88;100.00
15932;BME280;8065;49.520;11.284;2022-09-28T07:24:43;95511.22;;;10.90;100.00
15932;BME280;8065;49.520;11.284;2022-09-28T07:27:10;95514.63;;;10.91;100.00
15932;BME280;8065;49.520;11.284;2022-09-28T07:29:36;95518.06;;;10.95;100.00
15932;BME280;8065;49.520;11.284;2022-09-28T07:32:04;95521.13;;;10.97;100.00
15932;BME280;8065;49.520;11.284;2022-09-28T07:34:30;95527.97;;;10.98;100.00
15932;BME280;8065;49.520;11.284;2022-09-28T07:37:04;95526.84;;;10.99;100.00
15932;BME280;8065;49.520;11.284;2022-09-28T07:39:35;95526.50;;;11.04;100.00
15932;BME280;8065;49.520;11.284;2022-09-28T07:42:21;95527.28;;;11.08;100.00
15932;BME280;8065;49.520;11.284;2022-09-28T07:44:47;95526.56;;;11.11;100.00
15932;BME280;8065;49.520;11.284;2022-09-28T07:47:15;95530.41;;;11.17;100.00
15932;BME280;8065;49.520;11.284;2022-09-28T07:49:42;95546.34;;;11.17;100.00
15932;BME280;8065;49.520;11.284;2022-09-28T07:52:08;95550.13;;;11.16;100.00
15932;BME280;8065;49.520;11.284;2022-09-28T07:54:36;95549.06;;;11.24;100.00
15932;BME280;8065;49.520;11.284;2022-09-28T07:57:04;95554.00;;;11.26;100.00
15932;BME280;8065;49.520;11.284;2022-09-28T07:59:31;95550.19;;;11.27;100.00
15932;BME280;8065;49.520;11.284;2022-09-28T08:01:57;95557.44;;;11.30;100.00
15932;BME280;8065;49.520;11.284;2022-09-28T08:04:25;95559.34;;;11.33;100.00
15932;BME280;8065;49.520;11.284;2022-09-28T08:06:52;95560.91;;;11.37;100.00
15932;BME280;8065;49.520;11.284;2022-09-28T08:09:18;95561.25;;;11.36;100.00
15932;BME280;8065;49.520;11.284;2022-09-28T08:11:45;95570.38;;;11.35;100.00
15932;BME280;8065;49.520;11.284;2022-09-28T08:14:11;95570.06;;;11.43;100.00
15932;BME280;8065;49.520;11.284;2022-09-28T08:16:38;95581.88;;;11.49;100.00
15932;BME280;8065;49.520;11.284;2022-09-28T08:19:05;95565.56;;;11.55;100.00
15932;BME280;8065;49.520;11.284;2022-09-28T08:21:32;95573.94;;;11.57;100.00
15932;BME280;8065;49.520;11.284;2022-09-28T08:24:10;95580.75;;;11.50;100.00
15932;BME280;8065;49.520;11.284;2022-09-28T08:26:37;95581.47;;;11.47;100.00
15932;BME280;8065;49.520;11.284;2022-09-28T08:29:03;95591.31;;;11.40;100.00
15932;BME280;8065;49.520;11.284;2022-09-28T08:31:30;95592.75;;;11.30;100.00
15932;BME280;8065;49.520;11.284;2022-09-28T08:33:56;95591.63;;;11.31;100.00
15932;BME280;8065;49.520;11.284;2022-09-28T08:36:23;95598.81;;;11.27;100.00
15932;BME280;8065;49.520;11.284;2022-09-28T08:38:51;95595.00;;;11.28;100.00
15932;BME280;8065;49.520;11.284;2022-09-28T08:41:23;95602.66;;;11.33;100.00
15932;BME280;8065;49.520;11.284;2022-09-28T08:44:11;95611.81;;;11.39;100.00
15932;BME280;8065;49.520;11.284;2022-09-28T08:46:41;95610.44;;;11.56;100.00
15932;BME280;8065;49.520;11.284;2022-09-28T08:49:11;95614.97;;;11.56;100.00
15932;BME280;8065;49.520;11.284;2022-09-28T08:51:43;95622.63;;;11.61;100.00
15932;BME280;8065;49.520;11.284;2022-09-28T08:54:23;95626.44;;;11.63;100.00
15932;BME280;8065;49.520;11.284;2022-09-28T08:56:53;95624.16;;;11.65;100.00
15932;BME280;8065;49.520;11.284;2022-09-28T08:59:22;95627.31;;;11.78;99.96
15932;BME280;8065;49.520;11.284;2022-09-28T09:01:54;95631.13;;;11.77;98.16
15932;BME280;8065;49.520;11.284;2022-09-28T09:04:21;95631.16;;;11.80;98.49
15932;BME280;8065;49.520;11.284;2022-09-28T09:07:06;95625.06;;;11.84;97.63
15932;BME280;8065;49.520;11.284;2022-09-28T09:09:46;95628.19;;;11.96;97.89
15932;BME280;8065;49.520;11.284;2022-09-28T09:12:26;95637.44;;;12.24;96.87
15932;BME280;8065;49.520;11.284;2022-09-28T09:18:07;95648.59;;;12.51;94.55
15932;BME280;8065;49.520;11.284;2022-09-28T09:20:45;95647.44;;;12.48;93.60
15932;BME280;8065;49.520;11.284;2022-09-28T09:23:16;95655.13;;;12.67;93.70
15932;BME280;8065;49.520;11.284;2022-09-28T09:25:48;95662.06;;;12.90;94.03
15932;BME280;8065;49.520;11.284;2022-09-28T09:29:00;95663.31;;;13.56;92.26
15932;BME280;8065;49.520;11.284;2022-09-28T09:31:42;95662.09;;;14.10;89.17
15932;BME280;8065;49.520;11.284;2022-09-28T09:34:32;95659.00;;;14.30;84.08
15932;BME280;8065;49.520;11.284;2022-09-28T09:37:15;95649.75;;;14.59;82.95
15932;BME280;8065;49.520;11.284;2022-09-28T09:39:59;95648.66;;;15.19;82.10
15932;BME280;8065;49.520;11.284;2022-09-28T09:42:40;95647.00;;;15.39;79.96
15932;BME280;8065;49.520;11.284;2022-09-28T09:45:24;95657.34;;;15.37;78.75
15932;BME280;8065;49.520;11.284;2022-09-28T09:47:57;95649.66;;;15.88;78.58
15932;BME280;8065;49.520;11.284;2022-09-28T09:50:30;95649.00;;;16.18;76.70
15932;BME280;8065;49.520;11.284;2022-09-28T09:53:01;95653.06;;;16.33;76.70
15932;BME280;8065;49.520;11.284;2022-09-28T09:55:30;95653.84;;;16.30;76.25
15932;BME280;8065;49.520;11.284;2022-09-28T09:58:03;95655.22;;;16.45;74.91
15932;BME280;8065;49.520;11.284;2022-09-28T10:00:34;95661.28;;;16.49;73.34
15932;BME280;8065;49.520;11.284;2022-09-28T10:03:03;95659.31;;;16.87;74.00
15932;BME280;8065;49.520;11.284;2022-09-28T10:05:31;95658.19;;;17.15;73.36
15932;BME280;8065;49.520;11.284;2022-09-28T10:08:03;95664.97;;;17.23;74.08
15932;BME280;8065;49.520;11.284;2022-09-28T10:10:33;95659.59;;;17.23;73.41
15932;BME280;8065;49.520;11.284;2022-09-28T10:13:02;95671.19;;;17.17;73.69
15932;BME280;8065;49.520;11.284;2022-09-28T10:15:30;95672.59;;;16.64;73.79
15932;BME280;8065;49.520;11.284;2022-09-28T10:18:01;95676.84;;;15.86;74.17
15932;BME280;8065;49.520;11.284;2022-09-28T10:20:32;95678.69;;;15.45;74.22
15932;BME280;8065;49.520;11.284;2022-09-28T10:23:02;95676.72;;;15.56;74.25
15932;BME280;8065;49.520;11.284;2022-09-28T10:25:31;95683.28;;;15.96;73.40
15932;BME280;8065;49.520;11.284;2022-09-28T10:28:01;95689.94;;;16.22;74.48
15932;BME280;8065;49.520;11.284;2022-09-28T10:30:35;95684.63;;;16.15;73.15
15932;BME280;8065;49.520;11.284;2022-09-28T10:33:27;95689.09;;;15.87;72.86
15932;BME280;8065;49.520;11.284;2022-09-28T10:35:54;95683.84;;;16.18;73.08
15932;BME280;8065;49.520;11.284;2022-09-28T10:38:20;95694.31;;;16.01;72.83
15932;BME280;8065;49.520;11.284;2022-09-28T10:40:50;95695.88;;;16.40;72.30
15932;BME280;8065;49.520;11.284;2022-09-28T10:43:22;95696.97;;;16.46;66.96
15932;BME280;8065;49.520;11.284;2022-09-28T10:45:59;95706.16;;;16.04;68.46
15932;BME280;8065;49.520;11.284;2022-09-28T10:48:27;95702.72;;;15.55;67.36
15932;BME280;8065;49.520;11.284;2022-09-28T10:51:01;95697.13;;;15.87;66.18
15932;BME280;8065;49.520;11.284;2022-09-28T10:53:28;95695.34;;;16.15;66.10
15932;BME280;8065;49.520;11.284;2022-09-28T10:55:57;95692.88;;;16.34;66.37
15932;BME280;8065;49.520;11.284;2022-09-28T10:58:28;95693.56;;;16.42;66.68
15932;BME280;8065;49.520;11.284;2022-09-28T11:01:01;95698.94;;;16.38;66.16
15932;BME280;8065;49.520;11.284;2022-09-28T11:03:29;95696.56;;;16.82;66.34
15932;BME280;8065;49.520;11.284;2022-09-28T11:05:59;95692.94;;;16.65;65.37
15932;BME280;8065;49.520;11.284;2022-09-28T11:08:28;95697.09;;;17.00;65.30
15932;BME280;8065;49.520;11.284;2022-09-28T11:11:02;95693.88;;;17.12;66.13
15932;BME280;8065;49.520;11.284;2022-09-28T11:13:37;95681.88;;;17.20;64.72
15932;BME280;8065;49.520;11.284;2022-09-28T11:16:04;95686.91;;;16.88;66.01
15932;BME280;8065;49.520;11.284;2022-09-28T11:18:31;95686.19;;;17.14;66.40
15932;BME280;8065;49.520;11.284;2022-09-28T11:21:09;95680.13;;;17.33;64.47
15932;BME280;8065;49.520;11.284;2022-09-28T11:23:35;95691.47;;;17.45;64.33
15932;BME280;8065;49.520;11.284;2022-09-28T11:26:05;95684.81;;;17.29;65.11
15932;BME280;8065;49.520;11.284;2022-09-28T11:28:35;95684.34;;;17.34;64.14
15932;BME280;8065;49.520;11.284;2022-09-28T11:31:03;95683.78;;;17.47;64.16
15932;BME280;8065;49.520;11.284;2022-09-28T11:33:34;95691.84;;;17.47;64.17
15932;BME280;8065;49.520;11.284;2022-09-28T11:36:16;95674.53;;;17.24;65.15
15932;BME280;8065;49.520;11.284;2022-09-28T11:38:56;95686.78;;;16.98;65.75
15932;BME280;8065;49.520;11.284;2022-09-28T11:41:52;95687.88;;;16.70;64.40
15932;BME280;8065;49.520;11.284;2022-09-28T11:44:35;95677.19;;;16.63;62.96
15932;BME280;8065;49.520;11.284;2022-09-28T11:47:13;95689.25;;;16.48;62.07
15932;BME280;8065;49.520;11.284;2022-09-28T11:49:46;95695.28;;;16.22;61.36
15932;BME280;8065;49.520;11.284;2022-09-28T11:52:20;95698.78;;;16.53;61.74
15932;BME280;8065;49.520;11.284;2022-09-28T11:54:51;95700.03;;;16.79;61.93
15932;BME280;8065;49.520;11.284;2022-09-28T11:57:24;95691.69;;;17.03;61.59
15932;BME280;8065;49.520;11.284;2022-09-28T11:59:57;95697.00;;;17.07;60.81
15932;BME280;8065;49.520;11.284;2022-09-28T12:02:28;95685.19;;;17.31;60.98
15932;BME280;8065;49.520;11.284;2022-09-28T12:05:05;95693.91;;;17.35;61.39
15932;BME280;8065;49.520;11.284;2022-09-28T12:07:36;95687.78;;;17.35;59.78
15932;BME280;8065;49.520;11.284;2022-09-28T12:10:11;95690.78;;;17.41;61.13
15932;BME280;8065;49.520;11.284;2022-09-28T12:12:44;95694.75;;;17.32;61.91
15932;BME280;8065;49.520;11.284;2022-09-28T12:15:17;95702.16;;;16.94;60.92
15932;BME280;8065;49.520;11.284;2022-09-28T12:17:47;95703.31;;;16.59;59.52
15932;BME280;8065;49.520;11.284;2022-09-28T12:20:19;95706.72;;;16.26;60.17
15932;BME280;8065;49.520;11.284;2022-09-28T12:22:59;95717.81;;;15.83;61.71
15932;BME280;8065;49.520;11.284;2022-09-28T12:25:30;95710.78;;;16.00;61.60
15932;BME280;8065;49.520;11.284;2022-09-28T12:28:01;95702.47;;;15.87;63.17
15932;BME280;8065;49.520;11.284;2022-09-28T12:30:33;95700.91;;;15.93;63.67
15932;BME280;8065;49.520;11.284;2022-09-28T12:33:04;95713.31;;;15.73;61.12
15932;BME280;8065;49.520;11.284;2022-09-28T12:35:41;95710.75;;;15.59;61.83
15932;BME280;8065;49.520;11.284;2022-09-28T12:38:27;95709.53;;;16.12;62.41
15932;BME280;8065;49.520;11.284;2022-09-28T12:41:00;95709.53;;;16.49;62.22
15932;BME280;8065;49.520;11.284;2022-09-28T12:43:49;95707.09;;;16.65;60.62
15932;BME280;8065;49.520;11.284;2022-09-28T12:46:30;95703.59;;;17.02;60.82
15932;BME280;8065;49.520;11.284;2022-09-28T12:51:51;95712.97;;;17.45;60.14
15932;BME280;8065;49.520;11.284;2022-09-28T12:54:37;95714.91;;;17.44;58.69
15932;BME280;8065;49.520;11.284;2022-09-28T12:57:24;95714.38;;;17.53;59.35
15932;BME280;8065;49.520;11.284;2022-09-28T13:00:01;95720.09;;;17.31;59.80
15932;BME280;8065;49.520;11.284;2022-09-28T13:02:40;95719.66;;;17.06;60.09
15932;BME280;8065;49.520;11.284;2022-09-28T13:05:21;95731.91;;;17.07;60.17
15932;BME280;8065;49.520;11.284;2022-09-28T13:07:56;95724.72;;;16.66;59.58
15932;BME280;8065;49.520;11.284;2022-09-28T13:10:32;95724.97;;;16.42;60.88
15932;BME280;8065;49.520;11.284;2022-09-28T13:13:17;95725.81;;;16.31;61.61
15932;BME280;8065;49.520;11.284;2022-09-28T13:15:52;95721.28;;;16.25;60.57
15932;BME280;8065;49.520;11.284;2022-09-28T13:18:29;95718.13;;;16.37;60.85
15932;BME280;8065;49.520;11.284;2022-09-28T13:21:04;95714.53;;;16.47;61.72
15932;BME280;8065;49.520;11.284;2022-09-28T13:23:37;95720.53;;;16.24;60.04
15932;BME280;8065;49.520;11.284;2022-09-28T13:26:15;95719.81;;;16.20;61.24